Time;durP1;ratioP1;P1;durP2;ratioP2;P2;SDS_P1;SDS_P2;PMS_P1;PMS_P2;Temp;Humidity;BMP_temperature;BMP_pressure;BME280_temperature;BME280_humidity;BME280_pressure;Samples;Min_cycle;Max_cycle;Signal;HPM_P1;HPM_P2
2024/01/20 00:02:07;;;;;;;;;;;9.00;87.90;;;;;;5008163;28;87018;-49
2024/01/20 00:04:33;;;;;;;;;;;8.90;87.70;;;;;;5007763;28;87276;-52
2024/01/20 00:06:59;;;;;;;;;;;8.90;87.60;;;;;;5009463;28;86962;-51
2024/01/20 00:09:24;;;;;;;;;;;8.90;87.50;;;;;;5008657;28;87043;-49
2024/01/20 00:11:50;;;;;;;;;;;8.90;87.50;;;;;;5009068;28;86832;-50
2024/01/20 00:14:15;;;;;;;;;;;8.90;87.60;;;;;;5009245;28;87023;-50
2024/01/20 00:16:41;;;;;;;;;;;8.90;87.30;;;;;;5008579;28;87682;-49
2024/01/20 00:19:06;;;;;;;;;;;8.90;87.40;;;;;;5007280;28;88400;-49
2024/01/20 00:21:32;;;;;;;;;;;8.90;87.40;;;;;;5011192;28;87027;-50
2024/01/20 00:23:58;;;;;;;;;;;8.90;88.00;;;;;;5008096;28;88568;-53
2024/01/20 00:26:23;;;;;;;;;;;8.90;87.30;;;;;;5008208;28;87284;-49
2024/01/20 00:28:49;;;;;;;;;;;8.80;87.30;;;;;;5005186;28;86937;-50
2024/01/20 00:31:15;;;;;;;;;;;8.80;87.30;;;;;;5007825;28;87851;-50
2024/01/20 00:33:40;;;;;;;;;;;8.80;87.10;;;;;;5008911;28;86942;-50
2024/01/20 00:36:06;;;;;;;;;;;8.80;87.10;;;;;;5009585;28;86649;-49
2024/01/20 00:38:33;;;;;;;;;;;8.80;87.00;;;;;;5008280;28;88457;-50
2024/01/20 00:40:58;;;;;;;;;;;8.70;87.20;;;;;;5005966;28;87103;-50
2024/01/20 00:43:24;;;;;;;;;;;8.70;87.10;;;;;;5010275;28;89400;-51
2024/01/20 00:45:49;;;;;;;;;;;8.70;87.10;;;;;;5007305;28;86973;-50
2024/01/20 00:48:15;;;;;;;;;;;8.70;87.10;;;;;;5008198;28;87857;-49
2024/01/20 00:50:41;;;;;;;;;;;8.70;87.00;;;;;;5008583;28;87607;-51
2024/01/20 00:53:07;;;;;;;;;;;8.70;86.80;;;;;;5007442;28;87473;-51
2024/01/20 00:55:32;;;;;;;;;;;8.70;86.80;;;;;;5007138;28;87229;-52
2024/01/20 00:57:58;;;;;;;;;;;8.70;86.80;;;;;;5008340;28;87573;-49
2024/01/20 01:00:23;;;;;;;;;;;8.60;86.70;;;;;;5008336;28;86625;-52
2024/01/20 01:02:49;;;;;;;;;;;8.60;86.60;;;;;;5008121;28;87067;-52
2024/01/20 01:05:14;;;;;;;;;;;8.60;86.60;;;;;;5007977;28;87414;-52
2024/01/20 01:07:40;;;;;;;;;;;8.60;86.60;;;;;;5008006;28;87900;-49
2024/01/20 01:10:06;;;;;;;;;;;8.50;86.50;;;;;;5007009;28;87411;-49
2024/01/20 01:12:32;;;;;;;;;;;8.50;86.40;;;;;;5007394;28;87063;-49
2024/01/20 01:14:58;;;;;;;;;;;8.50;86.60;;;;;;5006687;28;86974;-49
2024/01/20 01:17:24;;;;;;;;;;;8.50;86.50;;;;;;5007318;28;87472;-48
2024/01/20 01:19:49;;;;;;;;;;;8.50;86.40;;;;;;5008323;28;86951;-49
2024/01/20 01:22:15;;;;;;;;;;;8.50;86.50;;;;;;5007705;28;86978;-50
2024/01/20 01:24:40;;;;;;;;;;;8.50;86.40;;;;;;5008013;28;86795;-49
2024/01/20 01:27:06;;;;;;;;;;;8.40;86.70;;;;;;5011120;28;86910;-52
2024/01/20 01:29:31;;;;;;;;;;;8.40;86.60;;;;;;5007452;28;88807;-50
2024/01/20 01:31:57;;;;;;;;;;;8.40;86.70;;;;;;5006032;28;87987;-51
2024/01/20 01:34:23;;;;;;;;;;;8.30;86.80;;;;;;5008023;28;88287;-50
2024/01/20 01:36:48;;;;;;;;;;;8.30;86.80;;;;;;5006802;28;87561;-50
2024/01/20 01:39:16;;;;;;;;;;;8.30;86.70;;;;;;5005219;28;87027;-48
2024/01/20 01:41:42;;;;;;;;;;;8.30;86.60;;;;;;5005330;28;87954;-52
2024/01/20 01:44:07;;;;;;;;;;;8.30;86.60;;;;;;5007609;28;87638;-53
2024/01/20 01:46:34;;;;;;;;;;;8.30;86.50;;;;;;5005008;28;87140;-50
2024/01/20 01:49:00;;;;;;;;;;;8.30;86.50;;;;;;5010159;28;87900;-51
2024/01/20 01:51:26;;;;;;;;;;;8.20;86.60;;;;;;5007710;28;86985;-50
2024/01/20 01:53:51;;;;;;;;;;;8.20;86.60;;;;;;5004586;28;87003;-52
2024/01/20 01:56:17;;;;;;;;;;;8.20;86.50;;;;;;5005283;28;88474;-50
2024/01/20 01:58:43;;;;;;;;;;;8.20;86.60;;;;;;5006793;28;87018;-49
2024/01/20 02:01:08;;;;;;;;;;;8.20;86.70;;;;;;5007596;28;86958;-50
2024/01/20 02:03:34;;;;;;;;;;;8.20;86.60;;;;;;5007496;28;87613;-51
2024/01/20 02:06:00;;;;;;;;;;;8.20;86.50;;;;;;5007721;28;87034;-51
2024/01/20 02:08:26;;;;;;;;;;;8.20;86.70;;;;;;5007271;28;86966;-50
2024/01/20 02:10:52;;;;;;;;;;;8.10;86.50;;;;;;5009354;28;88606;-50
2024/01/20 02:13:18;;;;;;;;;;;8.10;86.60;;;;;;5008085;28;86227;-50
2024/01/20 02:15:44;;;;;;;;;;;8.10;86.50;;;;;;5006987;28;87550;-48
2024/01/20 02:18:10;;;;;;;;;;;8.10;86.40;;;;;;5007583;28;87112;-49
2024/01/20 02:20:35;;;;;;;;;;;8.10;86.30;;;;;;5006997;28;88128;-50
2024/01/20 02:23:01;;;;;;;;;;;8.10;86.20;;;;;;5007261;28;87440;-48
2024/01/20 02:25:26;;;;;;;;;;;8.00;86.20;;;;;;5006551;28;87030;-50
2024/01/20 02:27:52;;;;;;;;;;;8.00;86.20;;;;;;5005526;28;87028;-50
2024/01/20 02:30:18;;;;;;;;;;;8.00;86.20;;;;;;5009784;28;87712;-48
2024/01/20 02:32:44;;;;;;;;;;;8.00;86.30;;;;;;5007177;28;86921;-50
2024/01/20 02:35:09;;;;;;;;;;;8.00;86.20;;;;;;5006396;28;87456;-49
2024/01/20 02:37:35;;;;;;;;;;;8.00;86.30;;;;;;5007838;28;86252;-50
2024/01/20 02:40:01;;;;;;;;;;;7.90;86.10;;;;;;5004009;28;87185;-48
2024/01/20 02:42:26;;;;;;;;;;;7.90;86.10;;;;;;5005731;28;87628;-48
2024/01/20 02:44:52;;;;;;;;;;;7.90;86.10;;;;;;5005212;28;87959;-50
2024/01/20 02:47:18;;;;;;;;;;;7.90;86.20;;;;;;5006457;28;87472;-49
2024/01/20 02:49:43;;;;;;;;;;;7.90;86.00;;;;;;5006832;28;86853;-51
2024/01/20 02:52:09;;;;;;;;;;;7.80;85.90;;;;;;5010369;28;87625;-49
2024/01/20 02:54:35;;;;;;;;;;;7.80;85.80;;;;;;5006258;28;87428;-48
2024/01/20 02:57:00;;;;;;;;;;;7.80;85.60;;;;;;5002701;28;87251;-50
2024/01/20 02:59:26;;;;;;;;;;;7.80;85.40;;;;;;5004565;28;87066;-49
2024/01/20 03:01:51;;;;;;;;;;;7.90;85.20;;;;;;5007137;28;86885;-49
2024/01/20 03:04:17;;;;;;;;;;;7.80;84.90;;;;;;5006832;28;87135;-50
2024/01/20 03:06:43;;;;;;;;;;;7.80;84.80;;;;;;5006242;28;86909;-49
2024/01/20 03:09:08;;;;;;;;;;;7.80;84.80;;;;;;5004502;28;88688;-51
2024/01/20 03:11:35;;;;;;;;;;;7.70;84.70;;;;;;5005657;28;87068;-49
2024/01/20 03:14:00;;;;;;;;;;;7.70;84.90;;;;;;5009398;28;86895;-48
2024/01/20 03:16:26;;;;;;;;;;;7.70;84.90;;;;;;5006509;28;86977;-48
2024/01/20 03:18:52;;;;;;;;;;;7.70;84.90;;;;;;5006589;28;86930;-53
2024/01/20 03:21:17;;;;;;;;;;;7.70;85.00;;;;;;5006180;28;87280;-48
2024/01/20 03:23:43;;;;;;;;;;;7.70;85.00;;;;;;5006601;28;86946;-49
2024/01/20 03:26:10;;;;;;;;;;;7.60;84.90;;;;;;5006958;28;86776;-50
2024/01/20 03:28:36;;;;;;;;;;;7.60;84.70;;;;;;5000817;28;88410;-48
2024/01/20 03:31:02;;;;;;;;;;;7.60;84.80;;;;;;5006277;28;87450;-49
2024/01/20 03:33:27;;;;;;;;;;;7.60;84.70;;;;;;5004526;28;87889;-49
2024/01/20 03:35:53;;;;;;;;;;;7.60;84.40;;;;;;5008979;28;87630;-48
2024/01/20 03:38:19;;;;;;;;;;;7.60;84.50;;;;;;5004604;28;88498;-49
2024/01/20 03:40:44;;;;;;;;;;;7.60;84.60;;;;;;5009506;28;87445;-48
2024/01/20 03:43:11;;;;;;;;;;;7.60;84.60;;;;;;5009213;28;86919;-49
2024/01/20 03:45:37;;;;;;;;;;;7.50;84.30;;;;;;5009600;28;88030;-49
2024/01/20 03:48:03;;;;;;;;;;;7.50;84.50;;;;;;5009138;28;88244;-50
2024/01/20 03:50:29;;;;;;;;;;;7.40;84.40;;;;;;5009180;28;86224;-49
2024/01/20 03:52:54;;;;;;;;;;;7.40;84.20;;;;;;5008675;28;86944;-48
2024/01/20 03:55:20;;;;;;;;;;;7.40;84.40;;;;;;5008692;28;87552;-50
2024/01/20 03:57:45;;;;;;;;;;;7.40;84.20;;;;;;5010544;28;87963;-48
2024/01/20 04:00:11;;;;;;;;;;;7.40;84.50;;;;;;5005786;28;87404;-50
2024/01/20 04:02:37;;;;;;;;;;;7.40;84.30;;;;;;5009650;28;87017;-49
2024/01/20 04:05:02;;;;;;;;;;;7.40;84.30;;;;;;5009470;28;86987;-49
2024/01/20 04:07:28;;;;;;;;;;;7.30;84.30;;;;;;5009159;28;87363;-47
2024/01/20 04:09:54;;;;;;;;;;;7.30;84.30;;;;;;5009077;28;86895;-48
2024/01/20 04:12:19;;;;;;;;;;;7.30;84.30;;;;;;5005320;28;87028;-49
2024/01/20 04:14:45;;;;;;;;;;;7.30;84.40;;;;;;5009542;28;86692;-47
2024/01/20 04:17:10;;;;;;;;;;;7.30;84.40;;;;;;5009448;28;86913;-51
2024/01/20 04:19:36;;;;;;;;;;;7.30;84.30;;;;;;5011399;28;86905;-50
2024/01/20 04:22:01;;;;;;;;;;;7.20;84.40;;;;;;5007398;28;87941;-48
2024/01/20 04:24:27;;;;;;;;;;;7.20;84.50;;;;;;5008770;28;88258;-49
2024/01/20 04:26:52;;;;;;;;;;;7.20;84.40;;;;;;5008359;28;87006;-52
2024/01/20 04:29:18;;;;;;;;;;;7.10;84.50;;;;;;5008407;28;86980;-50
2024/01/20 04:31:44;;;;;;;;;;;7.10;84.40;;;;;;5008143;28;87097;-48
2024/01/20 04:34:09;;;;;;;;;;;7.10;84.30;;;;;;5008479;28;88464;-49
2024/01/20 04:36:35;;;;;;;;;;;7.10;84.30;;;;;;5005150;28;86961;-48
2024/01/20 04:39:00;;;;;;;;;;;7.00;84.50;;;;;;5011988;28;86736;-48
2024/01/20 04:41:26;;;;;;;;;;;7.00;84.40;;;;;;5009105;28;87013;-49
2024/01/20 04:43:51;;;;;;;;;;;7.00;84.40;;;;;;5007687;28;86899;-47
2024/01/20 04:46:17;;;;;;;;;;;7.10;84.50;;;;;;5007412;28;88987;-49
2024/01/20 04:48:43;;;;;;;;;;;7.00;84.40;;;;;;5008674;28;87019;-48
2024/01/20 04:51:08;;;;;;;;;;;7.00;84.20;;;;;;5008216;28;87792;-49
2024/01/20 04:53:34;;;;;;;;;;;7.00;84.40;;;;;;5008436;28;87456;-48
2024/01/20 04:56:04;;;;;;;;;;;7.00;84.40;;;;;;5008310;28;86992;-49
2024/01/20 04:58:29;;;;;;;;;;;7.00;84.30;;;;;;5008062;28;86926;-49
2024/01/20 05:00:55;;;;;;;;;;;6.90;84.10;;;;;;5011175;28;87530;-49
2024/01/20 05:03:20;;;;;;;;;;;6.90;84.20;;;;;;5009199;28;86807;-47
2024/01/20 05:05:46;;;;;;;;;;;6.90;84.20;;;;;;5008447;28;86883;-50
2024/01/20 05:08:11;;;;;;;;;;;6.90;84.30;;;;;;5006945;28;87246;-48
2024/01/20 05:10:37;;;;;;;;;;;6.90;84.10;;;;;;5007848;28;87852;-48
2024/01/20 05:13:03;;;;;;;;;;;6.80;84.20;;;;;;5008177;28;87725;-48
2024/01/20 05:15:30;;;;;;;;;;;6.80;84.10;;;;;;5008206;28;86897;-49
2024/01/20 05:17:55;;;;;;;;;;;6.80;84.30;;;;;;5008448;28;86970;-49
2024/01/20 05:20:21;;;;;;;;;;;6.80;84.80;;;;;;5008052;28;87524;-48
2024/01/20 05:22:46;;;;;;;;;;;6.80;84.20;;;;;;5008835;28;87139;-47
2024/01/20 05:25:12;;;;;;;;;;;6.80;84.40;;;;;;5006989;28;87453;-48
2024/01/20 05:27:37;;;;;;;;;;;6.70;84.40;;;;;;5008159;28;86705;-48
2024/01/20 05:30:04;;;;;;;;;;;6.70;84.50;;;;;;5007576;28;87067;-49
2024/01/20 05:32:29;;;;;;;;;;;6.70;84.20;;;;;;5003680;28;87996;-48
2024/01/20 05:34:55;;;;;;;;;;;6.70;84.30;;;;;;5007508;28;87889;-49
2024/01/20 05:37:20;;;;;;;;;;;6.60;84.30;;;;;;5008090;28;87714;-48
2024/01/20 05:39:46;;;;;;;;;;;6.60;84.20;;;;;;5005807;28;88405;-48
2024/01/20 05:42:12;;;;;;;;;;;6.60;84.10;;;;;;5007270;28;87106;-48
2024/01/20 05:44:37;;;;;;;;;;;6.60;84.10;;;;;;5009231;28;87191;-48
2024/01/20 05:47:03;;;;;;;;;;;6.60;84.00;;;;;;5007482;28;87217;-48
2024/01/20 05:49:28;;;;;;;;;;;6.50;83.90;;;;;;5005071;28;86989;-49
2024/01/20 05:51:54;;;;;;;;;;;6.50;84.00;;;;;;5007188;28;86703;-48
2024/01/20 05:54:19;;;;;;;;;;;6.50;84.00;;;;;;5007592;28;87153;-49
2024/01/20 05:56:45;;;;;;;;;;;6.50;83.80;;;;;;5004136;28;87020;-48
2024/01/20 05:59:10;;;;;;;;;;;6.50;83.90;;;;;;5006762;28;87953;-48
2024/01/20 06:01:36;;;;;;;;;;;6.50;84.10;;;;;;5005639;28;86963;-49
2024/01/20 06:04:04;;;;;;;;;;;6.50;84.00;;;;;;5007654;28;86979;-49
2024/01/20 06:06:29;;;;;;;;;;;6.50;83.90;;;;;;5009141;28;88322;-48
2024/01/20 06:08:55;;;;;;;;;;;6.50;84.00;;;;;;5007161;28;86930;-50
2024/01/20 06:11:23;;;;;;;;;;;6.40;84.00;;;;;;5007244;28;87509;-50
2024/01/20 06:13:48;;;;;;;;;;;6.40;84.10;;;;;;5007492;28;86846;-48
2024/01/20 06:16:14;;;;;;;;;;;6.40;84.10;;;;;;5007060;28;86737;-50
2024/01/20 06:18:39;;;;;;;;;;;6.40;84.20;;;;;;5006604;28;87521;-48
2024/01/20 06:21:05;;;;;;;;;;;6.40;84.10;;;;;;5006722;28;86972;-49
2024/01/20 06:23:30;;;;;;;;;;;6.30;84.00;;;;;;5004326;28;87950;-48
2024/01/20 06:25:56;;;;;;;;;;;6.30;84.10;;;;;;5006970;28;87508;-49
2024/01/20 06:28:22;;;;;;;;;;;6.40;84.10;;;;;;5010278;28;87063;-48
2024/01/20 06:30:49;;;;;;;;;;;6.30;84.10;;;;;;5006313;28;87565;-48
2024/01/20 06:33:15;;;;;;;;;;;6.30;84.10;;;;;;5006209;28;87061;-48
2024/01/20 06:35:41;;;;;;;;;;;6.40;84.00;;;;;;5007144;28;86872;-49
2024/01/20 06:38:06;;;;;;;;;;;6.30;83.90;;;;;;5006821;28;87545;-50
2024/01/20 06:40:32;;;;;;;;;;;6.30;84.00;;;;;;5007289;28;86288;-48
2024/01/20 06:42:57;;;;;;;;;;;6.30;83.90;;;;;;5005927;28;86890;-50
2024/01/20 06:45:23;;;;;;;;;;;6.30;83.70;;;;;;5006189;28;87383;-48
2024/01/20 06:47:49;;;;;;;;;;;6.30;83.80;;;;;;5006764;28;87906;-47
2024/01/20 06:50:15;;;;;;;;;;;6.20;83.50;;;;;;5006248;28;86931;-48
2024/01/20 06:52:41;;;;;;;;;;;6.20;83.60;;;;;;5006699;28;86957;-51
2024/01/20 06:55:06;;;;;;;;;;;6.20;83.60;;;;;;5006904;28;86984;-48
2024/01/20 06:57:32;;;;;;;;;;;6.20;83.60;;;;;;5005317;28;87502;-47
2024/01/20 06:59:58;;;;;;;;;;;6.20;83.70;;;;;;5006532;28;87321;-48
2024/01/20 07:02:23;;;;;;;;;;;6.20;83.60;;;;;;5004572;28;88619;-48
2024/01/20 07:04:49;;;;;;;;;;;6.20;83.70;;;;;;5006952;28;86669;-48
2024/01/20 07:07:16;;;;;;;;;;;6.20;83.70;;;;;;5006540;28;87004;-51
2024/01/20 07:09:41;;;;;;;;;;;6.10;83.70;;;;;;5008899;28;86858;-50
2024/01/20 07:12:07;;;;;;;;;;;6.10;83.70;;;;;;5005491;28;88024;-49
2024/01/20 07:14:33;;;;;;;;;;;6.10;83.60;;;;;;5006448;28;88793;-47
2024/01/20 07:16:58;;;;;;;;;;;6.10;83.60;;;;;;5004738;28;87496;-50
2024/01/20 07:19:24;;;;;;;;;;;6.10;83.50;;;;;;5004338;28;87024;-48
2024/01/20 07:21:49;;;;;;;;;;;6.10;83.60;;;;;;5006204;28;88310;-48
2024/01/20 07:24:15;;;;;;;;;;;6.10;83.50;;;;;;5006235;28;86762;-50
2024/01/20 07:26:40;;;;;;;;;;;6.10;83.50;;;;;;5003688;28;87143;-48
2024/01/20 07:29:06;;;;;;;;;;;6.00;83.40;;;;;;5006649;28;87816;-48
2024/01/20 07:31:32;;;;;;;;;;;6.00;83.40;;;;;;5008849;28;87566;-48
2024/01/20 07:33:58;;;;;;;;;;;6.00;83.40;;;;;;5006141;28;87081;-48
2024/01/20 07:36:23;;;;;;;;;;;6.00;83.40;;;;;;5005205;28;89279;-49
2024/01/20 07:38:49;;;;;;;;;;;6.00;83.50;;;;;;5004698;28;86913;-47
2024/01/20 07:41:14;;;;;;;;;;;5.90;83.40;;;;;;5006287;28;86824;-48
2024/01/20 07:43:40;;;;;;;;;;;6.00;83.50;;;;;;5005884;28;87446;-49
2024/01/20 07:46:07;;;;;;;;;;;6.00;83.30;;;;;;5006384;28;87057;-47
2024/01/20 07:48:33;;;;;;;;;;;6.00;83.30;;;;;;5006143;28;86941;-48
2024/01/20 07:50:58;;;;;;;;;;;6.00;83.20;;;;;;5005833;28;88515;-48
2024/01/20 07:53:24;;;;;;;;;;;5.90;83.20;;;;;;5007880;28;86309;-49
2024/01/20 07:55:49;;;;;;;;;;;5.90;83.20;;;;;;5006070;28;87423;-49
2024/01/20 07:58:15;;;;;;;;;;;5.90;83.30;;;;;;5006107;28;87011;-48
2024/01/20 08:00:41;;;;;;;;;;;5.90;83.20;;;;;;5005505;28;87866;-48
2024/01/20 08:03:06;;;;;;;;;;;5.90;83.20;;;;;;5002061;28;87599;-48
2024/01/20 08:05:32;;;;;;;;;;;5.90;83.30;;;;;;5005772;28;87437;-47
2024/01/20 08:07:57;;;;;;;;;;;5.90;83.30;;;;;;5002638;28;87386;-50
2024/01/20 08:10:23;;;;;;;;;;;5.90;83.40;;;;;;5005307;28;87527;-47
2024/01/20 08:12:51;;;;;;;;;;;5.90;83.40;;;;;;5006071;28;87169;-50
2024/01/20 08:15:16;;;;;;;;;;;5.80;83.30;;;;;;5008255;28;88109;-48
2024/01/20 08:17:42;;;;;;;;;;;5.80;83.10;;;;;;5006294;28;86208;-48
2024/01/20 08:20:08;;;;;;;;;;;5.80;83.10;;;;;;5005916;28;86926;-47
2024/01/20 08:22:33;;;;;;;;;;;5.80;83.20;;;;;;5002962;28;87559;-48
2024/01/20 08:25:02;;;;;;;;;;;5.80;83.30;;;;;;5003070;28;88034;-49
2024/01/20 08:27:28;;;;;;;;;;;5.80;83.10;;;;;;5008993;28;88877;-49
2024/01/20 08:29:54;;;;;;;;;;;5.80;83.10;;;;;;5008980;28;87454;-48
2024/01/20 08:32:19;;;;;;;;;;;5.80;83.10;;;;;;5008602;28;87089;-47
2024/01/20 08:34:45;;;;;;;;;;;5.80;83.80;;;;;;5011805;28;86990;-49
2024/01/20 08:37:11;;;;;;;;;;;5.70;83.20;;;;;;5009389;28;87009;-47
2024/01/20 08:39:36;;;;;;;;;;;5.70;82.90;;;;;;5008489;28;87572;-48
2024/01/20 08:42:03;;;;;;;;;;;5.70;83.10;;;;;;5009110;28;86751;-48
2024/01/20 08:44:30;;;;;;;;;;;5.70;83.20;;;;;;5008752;28;86824;-47
2024/01/20 08:46:55;;;;;;;;;;;5.70;82.90;;;;;;5008804;28;87278;-48
2024/01/20 08:49:22;;;;;;;;;;;5.70;83.00;;;;;;5008026;28;88365;-48
2024/01/20 08:51:47;;;;;;;;;;;5.60;83.00;;;;;;5008613;28;86974;-49
2024/01/20 08:54:13;;;;;;;;;;;5.70;83.00;;;;;;5007918;28;86979;-47
2024/01/20 08:56:38;;;;;;;;;;;5.60;82.80;;;;;;5010862;28;88570;-47
2024/01/20 08:59:04;;;;;;;;;;;5.60;82.90;;;;;;5008794;28;86973;-47
2024/01/20 09:01:29;;;;;;;;;;;5.60;82.90;;;;;;5008341;28;87431;-47
2024/01/20 09:03:55;;;;;;;;;;;5.60;83.10;;;;;;5008609;28;87026;-48
2024/01/20 09:06:20;;;;;;;;;;;5.60;82.90;;;;;;5009152;28;86779;-47
2024/01/20 09:08:46;;;;;;;;;;;5.60;82.80;;;;;;5007180;28;87581;-47
2024/01/20 09:11:11;;;;;;;;;;;5.60;82.70;;;;;;5005131;28;87171;-47
2024/01/20 09:13:37;;;;;;;;;;;5.60;82.90;;;;;;5008012;28;87882;-49
2024/01/20 09:16:03;;;;;;;;;;;5.60;82.80;;;;;;5007958;28;88536;-48
2024/01/20 09:18:28;;;;;;;;;;;5.60;82.70;;;;;;5011356;28;87013;-47
2024/01/20 09:20:54;;;;;;;;;;;5.60;82.50;;;;;;5008074;28;87366;-48
2024/01/20 09:23:20;;;;;;;;;;;5.60;82.80;;;;;;5008813;28;86857;-48
2024/01/20 09:25:46;;;;;;;;;;;5.60;82.50;;;;;;5007300;28;88081;-47
2024/01/20 09:28:11;;;;;;;;;;;5.50;82.50;;;;;;5007829;28;87464;-49
2024/01/20 09:30:37;;;;;;;;;;;5.50;82.70;;;;;;5008299;28;86201;-48
2024/01/20 09:33:04;;;;;;;;;;;5.60;82.60;;;;;;5007681;28;87141;-48
2024/01/20 09:35:31;;;;;;;;;;;5.50;82.70;;;;;;5007431;28;89014;-48
2024/01/20 09:37:56;;;;;;;;;;;5.50;82.60;;;;;;5006970;28;88514;-48
2024/01/20 09:40:22;;;;;;;;;;;5.50;82.50;;;;;;5009395;28;87744;-49
2024/01/20 09:42:48;;;;;;;;;;;5.50;82.50;;;;;;5008052;28;86925;-49
2024/01/20 09:45:14;;;;;;;;;;;5.50;82.70;;;;;;5007988;28;86671;-49
2024/01/20 09:47:40;;;;;;;;;;;5.50;82.80;;;;;;5004329;28;87386;-49
2024/01/20 09:50:06;;;;;;;;;;;5.50;82.80;;;;;;5007093;28;87528;-48
2024/01/20 09:52:31;;;;;;;;;;;5.40;82.50;;;;;;5008163;28;87543;-49
2024/01/20 09:55:15;;;;;;;;;;;5.40;82.50;;;;;;5007974;28;86752;-49
2024/01/20 09:57:42;;;;;;;;;;;5.40;82.50;;;;;;5007782;28;87033;-51
2024/01/20 10:00:08;;;;;;;;;;;5.40;82.40;;;;;;5006995;28;87765;-49
2024/01/20 10:02:34;;;;;;;;;;;5.40;82.50;;;;;;5008538;28;89833;-48
2024/01/20 10:05:01;;;;;;;;;;;5.40;82.70;;;;;;5006640;28;88505;-52
2024/01/20 10:07:30;;;;;;;;;;;5.40;82.50;;;;;;5006968;28;88586;-52
2024/01/20 10:09:56;;;;;;;;;;;5.40;82.50;;;;;;5007289;28;87011;-49
2024/01/20 10:12:24;;;;;;;;;;;5.30;82.60;;;;;;5006574;28;87057;-49
2024/01/20 10:14:50;;;;;;;;;;;5.30;82.50;;;;;;5007170;28;87444;-49
2024/01/20 10:17:16;;;;;;;;;;;5.30;82.60;;;;;;5006490;28;87121;-49
2024/01/20 10:19:41;;;;;;;;;;;5.30;82.40;;;;;;5003516;28;86394;-49
2024/01/20 10:22:07;;;;;;;;;;;5.30;82.60;;;;;;5006845;28;87469;-48
2024/01/20 10:24:33;;;;;;;;;;;5.30;82.80;;;;;;5010213;28;87018;-48
2024/01/20 10:26:59;;;;;;;;;;;5.30;82.70;;;;;;5006058;28;89441;-47
2024/01/20 10:29:25;;;;;;;;;;;5.20;82.60;;;;;;5007132;28;87052;-47
2024/01/20 10:31:50;;;;;;;;;;;5.20;82.60;;;;;;5007063;28;87572;-47
2024/01/20 10:34:16;;;;;;;;;;;5.30;82.50;;;;;;5003229;28;88386;-49
2024/01/20 10:36:44;;;;;;;;;;;5.20;82.50;;;;;;5005893;28;87127;-49
2024/01/20 10:39:10;;;;;;;;;;;5.20;82.70;;;;;;5006747;28;87038;-48
2024/01/20 10:41:39;;;;;;;;;;;5.30;82.60;;;;;;5006581;28;88802;-51
2024/01/20 10:44:06;;;;;;;;;;;5.20;82.60;;;;;;5010441;28;86273;-48
2024/01/20 10:46:34;;;;;;;;;;;5.20;82.60;;;;;;5006233;28;87467;-49
2024/01/20 10:49:00;;;;;;;;;;;5.20;82.60;;;;;;5002263;28;87057;-48
2024/01/20 10:51:27;;;;;;;;;;;5.10;82.70;;;;;;5005482;28;87839;-48
2024/01/20 10:53:54;;;;;;;;;;;5.10;83.00;;;;;;5006526;28;88494;-50
2024/01/20 10:56:20;;;;;;;;;;;5.10;82.90;;;;;;5006937;28;86870;-51
2024/01/20 10:58:51;;;;;;;;;;;5.20;82.80;;;;;;5007042;28;86805;-47
2024/01/20 11:01:17;;;;;;;;;;;5.20;82.90;;;;;;5006099;28;89173;-48
2024/01/20 11:03:43;;;;;;;;;;;5.10;83.10;;;;;;5004466;28;86982;-48
2024/01/20 11:06:22;;;;;;;;;;;5.00;83.00;;;;;;5009410;28;86938;-50
2024/01/20 11:08:51;;;;;;;;;;;5.10;83.00;;;;;;5003791;28;87096;-50
2024/01/20 11:11:25;;;;;;;;;;;5.00;83.10;;;;;;5006197;28;87072;-50
2024/01/20 11:13:50;;;;;;;;;;;5.00;83.10;;;;;;5003675;28;88127;-47
2024/01/20 11:16:20;;;;;;;;;;;5.00;83.20;;;;;;5005465;28;87953;-48
2024/01/20 11:18:45;;;;;;;;;;;4.90;83.30;;;;;;5004733;28;89421;-48
2024/01/20 11:21:13;;;;;;;;;;;5.00;83.20;;;;;;5000781;28;87497;-47
2024/01/20 11:23:39;;;;;;;;;;;4.90;83.30;;;;;;5006594;28;87019;-48
2024/01/20 11:26:11;;;;;;;;;;;4.90;83.50;;;;;;5006516;28;87096;-48
2024/01/20 11:28:37;;;;;;;;;;;4.90;83.30;;;;;;5007838;28;88652;-50
2024/01/20 11:31:03;;;;;;;;;;;4.90;83.40;;;;;;5006424;28;86904;-48
2024/01/20 11:33:29;;;;;;;;;;;4.90;83.30;;;;;;5006333;28;87837;-48
2024/01/20 11:35:55;;;;;;;;;;;4.80;83.60;;;;;;5003939;28;87007;-49
2024/01/20 11:38:21;;;;;;;;;;;4.80;83.60;;;;;;5006035;28;87917;-50
2024/01/20 11:40:59;;;;;;;;;;;4.80;83.50;;;;;;5005279;28;88336;-48
2024/01/20 11:43:26;;;;;;;;;;;4.90;83.30;;;;;;5003044;28;86976;-49
2024/01/20 11:45:51;;;;;;;;;;;4.90;83.20;;;;;;5006063;28;88095;-49
2024/01/20 11:48:18;;;;;;;;;;;4.80;83.10;;;;;;5005575;28;87658;-48
2024/01/20 11:50:43;;;;;;;;;;;4.80;83.30;;;;;;5008023;28;86970;-50
2024/01/20 11:53:09;;;;;;;;;;;4.80;83.30;;;;;;5005231;28;88443;-51
2024/01/20 11:55:35;;;;;;;;;;;4.80;83.90;;;;;;5004667;28;86948;-49
2024/01/20 11:58:01;;;;;;;;;;;4.80;83.20;;;;;;5006205;28;86279;-48
2024/01/20 12:00:27;;;;;;;;;;;4.80;83.20;;;;;;5007841;28;87384;-47
2024/01/20 12:02:52;;;;;;;;;;;4.80;83.00;;;;;;5008814;28;86879;-48
2024/01/20 12:05:18;;;;;;;;;;;4.70;83.10;;;;;;5008364;28;87952;-48
2024/01/20 12:07:44;;;;;;;;;;;4.80;83.20;;;;;;5009338;28;87911;-51
2024/01/20 12:10:09;;;;;;;;;;;4.70;83.10;;;;;;5007954;28;87090;-48
2024/01/20 12:12:35;;;;;;;;;;;4.80;82.80;;;;;;5012488;28;86927;-47
2024/01/20 12:15:03;;;;;;;;;;;4.70;83.10;;;;;;5009163;28;86970;-49
2024/01/20 12:17:29;;;;;;;;;;;4.70;82.90;;;;;;5008596;28;86800;-49
2024/01/20 12:19:55;;;;;;;;;;;4.70;82.90;;;;;;5006156;28;87428;-49
2024/01/20 12:22:20;;;;;;;;;;;4.70;82.90;;;;;;5009280;28;86228;-49
2024/01/20 12:24:49;;;;;;;;;;;4.60;82.90;;;;;;5009266;28;86965;-49
2024/01/20 12:27:16;;;;;;;;;;;4.60;83.10;;;;;;5008625;28;88481;-48
2024/01/20 12:29:41;;;;;;;;;;;4.60;82.90;;;;;;5008149;28;87966;-50
2024/01/20 12:32:08;;;;;;;;;;;4.70;82.80;;;;;;5008955;28;87679;-51
2024/01/20 12:34:33;;;;;;;;;;;4.70;82.70;;;;;;5011385;28;88541;-48
2024/01/20 12:36:59;;;;;;;;;;;4.60;82.70;;;;;;5008614;28;86889;-48
2024/01/20 12:39:25;;;;;;;;;;;4.60;82.80;;;;;;5008790;28;87400;-50
2024/01/20 12:41:51;;;;;;;;;;;4.60;83.00;;;;;;5008913;28;87156;-48
2024/01/20 12:44:17;;;;;;;;;;;4.60;82.80;;;;;;5008854;28;88022;-51
2024/01/20 12:46:43;;;;;;;;;;;4.60;82.90;;;;;;5008939;28;86052;-51
2024/01/20 12:49:08;;;;;;;;;;;4.60;83.00;;;;;;5008576;28;87047;-50
2024/01/20 12:51:34;;;;;;;;;;;4.50;82.80;;;;;;5008094;28;87078;-48
2024/01/20 12:53:59;;;;;;;;;;;4.60;82.60;;;;;;5006321;28;89576;-49
2024/01/20 12:56:25;;;;;;;;;;;4.50;82.90;;;;;;5005109;28;88810;-48
2024/01/20 12:58:51;;;;;;;;;;;4.50;83.00;;;;;;5008245;28;87455;-48
2024/01/20 13:01:16;;;;;;;;;;;4.50;83.00;;;;;;5008381;28;88575;-50
2024/01/20 13:03:42;;;;;;;;;;;4.50;83.00;;;;;;5007709;28;87614;-50
2024/01/20 13:06:08;;;;;;;;;;;4.50;82.90;;;;;;5007679;28;87417;-49
2024/01/20 13:08:34;;;;;;;;;;;4.40;82.90;;;;;;5006255;28;87135;-49
2024/01/20 13:10:59;;;;;;;;;;;4.40;83.20;;;;;;5007712;28;87000;-48
2024/01/20 13:13:25;;;;;;;;;;;4.40;83.00;;;;;;5007789;28;87293;-49
2024/01/20 13:15:51;;;;;;;;;;;4.40;83.00;;;;;;5010300;28;86935;-49
2024/01/20 13:18:16;;;;;;;;;;;4.30;83.00;;;;;;5006831;28;89227;-53
2024/01/20 13:20:42;;;;;;;;;;;4.40;82.80;;;;;;5006699;28;87283;-48
2024/01/20 13:23:08;;;;;;;;;;;4.40;82.80;;;;;;5008019;28;87894;-49
2024/01/20 13:25:34;;;;;;;;;;;4.40;82.80;;;;;;5004092;28;88453;-49
2024/01/20 13:28:00;;;;;;;;;;;4.40;82.90;;;;;;5007245;28;87004;-48
2024/01/20 13:30:26;;;;;;;;;;;4.30;83.00;;;;;;5007487;28;88355;-52
2024/01/20 13:32:52;;;;;;;;;;;4.30;83.10;;;;;;5007414;28;88322;-49
2024/01/20 13:35:17;;;;;;;;;;;4.20;83.30;;;;;;5008805;28;86156;-49
2024/01/20 13:37:43;;;;;;;;;;;4.20;83.50;;;;;;5009224;28;86872;-48
2024/01/20 13:40:11;;;;;;;;;;;4.20;82.90;;;;;;5007121;28;87089;-48
2024/01/20 13:42:37;;;;;;;;;;;4.30;83.00;;;;;;5003661;28;88142;-50
2024/01/20 13:45:03;;;;;;;;;;;4.20;83.30;;;;;;5004655;28;87478;-49
2024/01/20 13:47:28;;;;;;;;;;;4.10;83.50;;;;;;5006490;28;86967;-49
2024/01/20 13:49:54;;;;;;;;;;;4.20;83.50;;;;;;5007570;28;86971;-49
2024/01/20 13:52:20;;;;;;;;;;;4.20;83.00;;;;;;5005595;28;88623;-48
2024/01/20 13:54:45;;;;;;;;;;;4.20;83.00;;;;;;5007697;28;87007;-49
2024/01/20 13:57:11;;;;;;;;;;;4.20;83.30;;;;;;5007512;28;87767;-49
2024/01/20 13:59:37;;;;;;;;;;;4.10;83.50;;;;;;5010837;28;86905;-50
2024/01/20 14:02:02;;;;;;;;;;;4.10;83.60;;;;;;5005280;28;87042;-48
2024/01/20 14:04:28;;;;;;;;;;;4.10;83.50;;;;;;5006573;28;87417;-49
2024/01/20 14:06:54;;;;;;;;;;;4.20;83.30;;;;;;5005918;28;88001;-48
2024/01/20 14:09:20;;;;;;;;;;;4.10;83.60;;;;;;5007208;28;88743;-51
2024/01/20 14:11:45;;;;;;;;;;;4.10;83.40;;;;;;5007109;28;86974;-51
2024/01/20 14:14:11;;;;;;;;;;;4.20;83.20;;;;;;5007570;28;86884;-49
2024/01/20 14:16:37;;;;;;;;;;;4.10;83.40;;;;;;5006513;28;87193;-49
2024/01/20 14:19:06;;;;;;;;;;;4.10;83.50;;;;;;5006850;28;88383;-49
2024/01/20 14:21:32;;;;;;;;;;;4.10;83.50;;;;;;5007983;28;87347;-49
2024/01/20 14:23:58;;;;;;;;;;;4.00;83.50;;;;;;5006776;28;86948;-50